Aérodrome :
LOGIN :

S'inscrire | Disclaimer

   EN    FR    IT 

 










Légende :    VFR   VFR Marginal   IFR   IFR Intensif   IFR Très Intensif
Visi : 
Plafond : 
>= 8 km
>= 3000ft
5 à 8 km
1000 à 3000 ft
1500m à 5 km
500 à 1000 ft
800 à 1500m
200 à 500 ft
< 800m
< 200 ft
Symboles :   Orages  Brouillard  Fortes neiges  Fortes précipitations  Vent > 20 kt
SIGMETs :   Divers  Orages  Givrage  Turbulence  Onde Orograph.  Cendres Volcan.






- Altitude de l'aérodrome : 538 ft
- Code IATA : TNF


LFPN - Toussus Le Noble

DERNIER METAR :
  • 280730Z AUTO 36005KT 340V050 CAVOK 14/10 Q1024 NOSIG

METARs EXPIRÉS :
  • 280700Z AUTO 34004KT 320V030 CAVOK 13/09 Q1024 NOSIG
  • 280630Z AUTO 33003KT CAVOK 12/09 Q1024 NOSIG
  • 280600Z AUTO 32003KT CAVOK 12/09 Q1024 NOSIG
  • 280530Z AUTO 35003KT 320V020 CAVOK 10/08 Q1024 NOSIG
  • 280500Z AUTO 33004KT CAVOK 08/07 Q1024

TAF TAF LFPN
Valide du 28 à 06h jusqu'au 28 à 15h UTC


280500Z 2806/2815 01006KT CAVOK
ATIS : +33 1 39 56 54 70



MET'MAP, la Météo Aéronautique d'un coup d'oeil ! - Copyright ORBIFLY Décembre 2007 - Disclaimer

ORBIFLY MET'MAP TEAM :

Programmation & Développement : Alexandra Zaïnal
Sur une idée originale de : Baudouin d'Aumeries
Soutien technique & logistique : Manuel Goepfert
Assistance : Marc-Olivier Méhu

Contact : metmap@orbifly.com




SOURCES & CREDITS :

   NOAA